Time;durP1;ratioP1;P1;durP2;ratioP2;P2;SDS_P1;SDS_P2;PMS_P1;PMS_P2;Temp;Humidity;BMP_temperature;BMP_pressure;BME280_temperature;BME280_humidity;BME280_pressure;Samples;Min_cycle;Max_cycle;Signal;HPM_P1;HPM_P2
2023/11/14 00:02:24;;;;;;;23.30;4.28;;;11.80;99.90;;;;;;5066020;28;20127;-70
2023/11/14 00:04:50;;;;;;;26.67;5.60;;;11.80;99.90;;;;;;5069301;28;20044;-70
2023/11/14 00:07:15;;;;;;;26.52;6.68;;;11.80;99.90;;;;;;5067961;28;20126;-70
2023/11/14 00:09:41;;;;;;;30.15;6.32;;;11.80;99.90;;;;;;5062143;28;20449;-70
2023/11/14 00:12:07;;;;;;;27.55;5.07;;;12.40;99.90;;;;;;5066533;28;20033;-70
2023/11/14 00:14:32;;;;;;;23.92;5.43;;;11.90;99.90;;;;;;5064760;28;20474;-70
2023/11/14 00:16:58;;;;;;;23.95;5.53;;;11.90;99.90;;;;;;5065825;28;20049;-70
2023/11/14 00:19:24;;;;;;;30.20;7.55;;;11.90;99.90;;;;;;5064581;28;20144;-70
2023/11/14 00:21:50;;;;;;;22.70;4.65;;;11.90;99.90;;;;;;5067253;28;20423;-70
2023/11/14 00:24:16;;;;;;;20.95;4.50;;;11.90;99.90;;;;;;5066034;28;20089;-70
2023/11/14 00:26:42;;;;;;;22.98;4.65;;;11.90;99.90;;;;;;5068394;28;20097;-70
2023/11/14 00:29:07;;;;;;;26.73;5.63;;;11.90;99.90;;;;;;5093538;28;20048;-70
2023/11/14 00:31:33;;;;;;;33.92;6.53;;;11.90;99.90;;;;;;5064251;28;20067;-70
2023/11/14 00:33:59;;;;;;;23.85;4.93;;;11.90;99.90;;;;;;5064296;28;20040;-70
2023/11/14 00:36:25;;;;;;;27.45;5.63;;;11.90;99.90;;;;;;5064792;28;20495;-70
2023/11/14 00:38:51;;;;;;;26.27;5.60;;;12.00;99.90;;;;;;5066121;28;20048;-70
2023/11/14 00:41:17;;;;;;;22.02;4.57;;;11.90;99.90;;;;;;5064809;28;20076;-70
2023/11/14 00:43:51;;;;;;;22.98;5.28;;;11.90;99.90;;;;;;5069638;28;20053;-70
2023/11/14 00:46:16;;;;;;;23.10;5.40;;;11.80;99.90;;;;;;5071906;28;20037;-70
2023/11/14 00:48:44;;;;;;;27.75;5.95;;;11.90;99.90;;;;;;5065062;28;20059;-70
2023/11/14 00:51:10;;;;;;;22.25;5.97;;;11.90;99.90;;;;;;5068955;28;20036;-70
2023/11/14 00:53:36;;;;;;;23.92;5.15;;;12.00;99.90;;;;;;5068542;28;20044;-70
2023/11/14 00:56:02;;;;;;;21.30;4.82;;;11.90;99.90;;;;;;5097492;27;20044;-70
2023/11/14 00:58:28;;;;;;;27.23;4.63;;;11.90;99.90;;;;;;5067221;28;20422;-70
2023/11/14 01:00:53;;;;;;;21.67;5.53;;;11.90;99.90;;;;;;5070741;28;20059;-71
2023/11/14 01:03:21;;;;;;;19.42;4.90;;;11.70;99.90;;;;;;5069436;28;20045;-70
2023/11/14 01:05:46;;;;;;;37.60;6.90;;;11.80;99.90;;;;;;5099291;27;20518;-70
2023/11/14 01:08:12;;;;;;;33.25;5.68;;;11.60;99.90;;;;;;5069402;28;20125;-70
2023/11/14 01:10:38;;;;;;;29.33;6.32;;;11.60;99.90;;;;;;5068950;28;20045;-70
2023/11/14 01:13:05;;;;;;;25.50;4.85;;;11.60;99.90;;;;;;5072428;28;20505;-70
2023/11/14 01:15:31;;;;;;;29.90;5.63;;;11.60;99.90;;;;;;5071573;28;20093;-70
2023/11/14 01:17:56;;;;;;;25.90;5.07;;;11.60;99.90;;;;;;5069447;28;20045;-70
2023/11/14 01:20:22;;;;;;;21.67;4.72;;;11.60;99.90;;;;;;5068557;28;20411;-71
2023/11/14 01:22:49;;;;;;;27.52;5.38;;;11.60;99.90;;;;;;5069298;28;20606;-70
2023/11/14 01:25:15;;;;;;;28.00;5.70;;;11.50;99.90;;;;;;5071269;28;20037;-70
2023/11/14 01:27:40;;;;;;;27.45;4.85;;;11.50;99.90;;;;;;5067315;28;20084;-70
2023/11/14 01:30:08;;;;;;;28.88;6.60;;;11.50;99.90;;;;;;5068048;28;20478;-70
2023/11/14 01:32:34;;;;;;;30.65;5.63;;;11.50;99.90;;;;;;5068597;28;20123;-70
2023/11/14 01:35:00;;;;;;;28.13;4.95;;;11.50;99.90;;;;;;5067140;28;20127;-70
2023/11/14 01:37:26;;;;;;;31.60;6.05;;;11.50;99.90;;;;;;5069478;28;20040;-70
2023/11/14 01:39:51;;;;;;;26.27;4.18;;;11.60;99.90;;;;;;5070528;28;20433;-70
2023/11/14 01:42:17;;;;;;;25.10;5.20;;;11.60;99.90;;;;;;5070307;28;20036;-71
2023/11/14 01:44:43;;;;;;;27.55;5.03;;;11.50;99.90;;;;;;5067869;28;20128;-70
2023/11/14 01:47:09;;;;;;;28.80;5.57;;;11.50;99.90;;;;;;5067996;28;20044;-70
2023/11/14 01:49:34;;;;;;;26.27;5.95;;;11.40;99.90;;;;;;5067363;28;20083;-71
2023/11/14 01:52:00;;;;;;;27.38;5.07;;;11.40;99.90;;;;;;5067015;28;20080;-71
2023/11/14 01:54:26;;;;;;;28.75;6.40;;;11.50;99.90;;;;;;5067162;28;20042;-70
2023/11/14 01:56:51;;;;;;;27.55;5.53;;;11.30;99.90;;;;;;5070110;28;20028;-70
2023/11/14 01:59:18;;;;;;;25.33;4.82;;;11.30;99.90;;;;;;5068260;28;20040;-70
2023/11/14 02:01:44;;;;;;;25.55;5.78;;;11.30;99.90;;;;;;5065630;28;20036;-71
2023/11/14 02:04:13;;;;;;;31.15;6.22;;;11.30;99.90;;;;;;5065488;28;20051;-70
2023/11/14 02:06:39;;;;;;;26.00;5.85;;;11.20;99.90;;;;;;5068556;28;20107;-70
2023/11/14 02:09:07;;;;;;;26.42;5.05;;;11.20;99.90;;;;;;5098237;28;20549;-70
2023/11/14 02:11:34;;;;;;;26.17;4.60;;;11.30;99.90;;;;;;5067812;28;20071;-70
2023/11/14 02:14:00;;;;;;;24.15;5.15;;;11.20;99.90;;;;;;5068336;28;20438;-70
2023/11/14 02:16:27;;;;;;;31.38;5.63;;;11.20;99.90;;;;;;5067471;28;20479;-70
2023/11/14 02:18:53;;;;;;;31.15;5.35;;;11.20;99.90;;;;;;5064997;28;20155;-70
2023/11/14 02:21:21;;;;;;;27.75;5.03;;;11.20;99.90;;;;;;5064993;28;20040;-70
2023/11/14 02:23:51;;;;;;;28.98;5.60;;;11.30;99.90;;;;;;5068064;28;20380;-70
2023/11/14 02:26:17;;;;;;;29.88;5.93;;;11.20;99.90;;;;;;5064851;28;20040;-70
2023/11/14 02:28:43;;;;;;;25.38;5.57;;;11.20;99.90;;;;;;5068010;28;20047;-70
2023/11/14 02:31:09;;;;;;;24.67;5.22;;;11.20;99.90;;;;;;5069354;28;20041;-70
2023/11/14 02:33:37;;;;;;;36.17;6.40;;;11.30;99.90;;;;;;5064849;28;20139;-70
2023/11/14 02:36:05;;;;;;;23.92;4.97;;;11.20;99.90;;;;;;5068054;28;20060;-70
2023/11/14 02:38:31;;;;;;;24.77;5.38;;;11.20;99.90;;;;;;5065105;28;20045;-70
2023/11/14 02:40:57;;;;;;;26.35;5.10;;;11.20;99.90;;;;;;5063874;28;20093;-70
2023/11/14 02:43:22;;;;;;;24.75;5.63;;;11.10;99.90;;;;;;5067153;28;20051;-70
2023/11/14 02:45:48;;;;;;;26.45;4.60;;;11.20;99.90;;;;;;5067664;28;20036;-70
2023/11/14 02:48:14;;;;;;;28.05;6.80;;;11.20;99.90;;;;;;5065283;28;20143;-70
2023/11/14 02:50:53;;;;;;;24.73;4.78;;;11.40;99.90;;;;;;5065149;28;20063;-70
2023/11/14 02:53:20;;;;;;;23.25;4.82;;;11.20;99.90;;;;;;5062713;28;20086;-70
2023/11/14 02:55:46;;;;;;;33.22;6.70;;;11.20;99.90;;;;;;5066254;28;20044;-70
2023/11/14 02:58:13;;;;;;;21.13;4.55;;;11.20;99.90;;;;;;5062485;28;20132;-70
2023/11/14 03:00:45;;;;;;;32.10;6.07;;;11.30;99.90;;;;;;5068483;28;20511;-70
2023/11/14 03:03:12;;;;;;;26.50;6.22;;;11.30;99.90;;;;;;5064126;28;20040;-70
2023/11/14 03:05:38;;;;;;;22.85;4.85;;;11.30;99.90;;;;;;5065168;28;20376;-70
2023/11/14 03:08:04;;;;;;;24.20;4.75;;;11.30;99.90;;;;;;5066068;28;20051;-70
2023/11/14 03:10:32;;;;;;;30.02;6.00;;;11.30;99.90;;;;;;5064601;28;20044;-70
2023/11/14 03:12:59;;;;;;;27.17;5.47;;;11.30;99.90;;;;;;5063502;28;20045;-70
2023/11/14 03:15:26;;;;;;;26.98;4.82;;;11.40;99.90;;;;;;5067668;28;20044;-71
2023/11/14 03:18:01;;;;;;;23.05;5.72;;;11.40;99.90;;;;;;5061674;28;20080;-70
2023/11/14 03:20:28;;;;;;;28.33;5.07;;;11.40;99.90;;;;;;5067973;28;20390;-70
2023/11/14 03:22:54;;;;;;;26.92;4.75;;;11.30;99.90;;;;;;5068003;28;20049;-70
2023/11/14 03:25:21;;;;;;;23.75;4.88;;;11.30;99.90;;;;;;5067165;28;20085;-70
2023/11/14 03:27:46;;;;;;;24.88;5.05;;;11.40;99.90;;;;;;5065462;28;20442;-70
2023/11/14 03:30:12;;;;;;;33.50;6.65;;;11.40;99.90;;;;;;5067346;28;20181;-71
2023/11/14 03:32:39;;;;;;;26.27;5.20;;;11.40;99.90;;;;;;5066648;28;20484;-70
2023/11/14 03:35:05;;;;;;;27.13;5.03;;;11.40;99.90;;;;;;5068592;28;20040;-70
2023/11/14 03:37:31;;;;;;;29.98;4.90;;;11.30;99.90;;;;;;5066052;28;20605;-70
2023/11/14 03:39:57;;;;;;;29.15;5.30;;;11.30;99.90;;;;;;5098236;28;20089;-71
2023/11/14 03:42:23;;;;;;;25.85;5.05;;;11.30;99.90;;;;;;5068385;28;20040;-70
2023/11/14 03:44:49;;;;;;;29.25;6.13;;;11.30;99.90;;;;;;5063935;28;20040;-70
2023/11/14 03:47:15;;;;;;;32.03;5.80;;;11.30;99.90;;;;;;5063607;28;20097;-70
2023/11/14 03:49:41;;;;;;;32.90;5.85;;;11.30;99.90;;;;;;5096615;28;20483;-70
2023/11/14 03:52:07;;;;;;;24.20;5.88;;;11.20;99.90;;;;;;5066502;28;20032;-70
2023/11/14 03:54:33;;;;;;;28.45;5.78;;;11.40;99.90;;;;;;5062016;28;20124;-71
2023/11/14 03:56:58;;;;;;;27.48;5.63;;;11.30;99.90;;;;;;5063928;28;20033;-71
2023/11/14 03:59:24;;;;;;;30.70;5.95;;;11.30;99.90;;;;;;5066908;28;20045;-71
2023/11/14 04:01:50;;;;;;;30.05;6.25;;;11.20;99.90;;;;;;5066947;28;20048;-71
2023/11/14 04:04:16;;;;;;;27.73;5.85;;;11.20;99.90;;;;;;5065249;28;20382;-70
2023/11/14 04:06:41;;;;;;;29.23;5.68;;;11.30;99.90;;;;;;5063219;28;20044;-70
2023/11/14 04:09:07;;;;;;;28.27;6.15;;;11.20;99.90;;;;;;5063396;28;20495;-71
2023/11/14 04:11:33;;;;;;;28.55;5.68;;;11.20;99.90;;;;;;5066873;28;20037;-70
2023/11/14 04:13:59;;;;;;;27.65;6.18;;;11.20;99.90;;;;;;5064712;28;20518;-71
2023/11/14 04:16:24;;;;;;;31.02;6.50;;;11.20;99.90;;;;;;5067829;28;20407;-70
2023/11/14 04:18:50;;;;;;;31.85;6.90;;;11.20;99.90;;;;;;5067053;28;20041;-70
2023/11/14 04:21:19;;;;;;;25.15;5.93;;;11.20;99.90;;;;;;5071754;28;20028;-70
2023/11/14 04:23:48;;;;;;;32.20;5.43;;;11.30;99.90;;;;;;5068486;28;20040;-70
2023/11/14 04:26:14;;;;;;;42.00;5.78;;;11.30;99.90;;;;;;5069600;28;20033;-70
2023/11/14 04:28:41;;;;;;;30.38;6.47;;;11.30;99.90;;;;;;5070548;28;20044;-71
2023/11/14 04:31:06;;;;;;;25.45;5.15;;;11.30;99.90;;;;;;5068755;28;20075;-70
2023/11/14 04:33:32;;;;;;;31.00;6.55;;;11.60;99.90;;;;;;5068893;28;20475;-70
2023/11/14 04:35:58;;;;;;;31.58;4.78;;;11.40;99.90;;;;;;5068525;28;20037;-70
2023/11/14 04:38:23;;;;;;;29.35;5.18;;;11.30;99.90;;;;;;5069608;28;20186;-71
2023/11/14 04:40:49;;;;;;;24.45;4.88;;;11.30;99.90;;;;;;5069152;28;20119;-70
2023/11/14 04:43:14;;;;;;;23.13;5.65;;;11.40;99.90;;;;;;5069689;28;20398;-70
2023/11/14 04:45:40;;;;;;;28.80;5.28;;;11.30;99.90;;;;;;5068349;28;20479;-70
2023/11/14 04:48:06;;;;;;;30.95;4.43;;;11.30;99.90;;;;;;5065964;28;20044;-70
2023/11/14 04:50:31;;;;;;;26.92;4.63;;;11.20;99.90;;;;;;5067804;28;20075;-70
2023/11/14 04:52:57;;;;;;;32.67;6.13;;;11.30;99.90;;;;;;5054291;28;20039;-70
2023/11/14 04:55:23;;;;;;;27.38;5.55;;;11.20;99.90;;;;;;5070281;28;20678;-70
2023/11/14 04:57:48;;;;;;;29.30;4.60;;;11.30;99.90;;;;;;5062027;28;20054;-70
2023/11/14 05:00:14;;;;;;;32.15;6.60;;;11.30;99.90;;;;;;5063597;28;20552;-71
2023/11/14 05:02:40;;;;;;;26.52;5.60;;;11.30;99.90;;;;;;5068048;28;20040;-70
2023/11/14 05:05:07;;;;;;;33.90;6.22;;;11.40;99.90;;;;;;5068422;28;20044;-70
2023/11/14 05:07:32;;;;;;;40.63;6.32;;;11.30;99.90;;;;;;5068303;28;20805;-70
2023/11/14 05:09:59;;;;;;;28.55;4.45;;;11.40;99.90;;;;;;5068288;28;20094;-70
2023/11/14 05:12:25;;;;;;;29.02;5.60;;;11.70;99.90;;;;;;5070227;28;20048;-70
2023/11/14 05:14:51;;;;;;;36.78;5.80;;;11.50;99.90;;;;;;5068621;28;20284;-71
2023/11/14 05:17:17;;;;;;;22.52;5.47;;;11.40;99.90;;;;;;5067230;28;20036;-70
2023/11/14 05:19:42;;;;;;;33.90;4.80;;;11.40;99.90;;;;;;5064309;28;20253;-70
2023/11/14 05:22:08;;;;;;;25.85;5.65;;;11.40;99.90;;;;;;5066201;28;20038;-70
2023/11/14 05:24:34;;;;;;;31.13;6.72;;;11.40;99.90;;;;;;5070478;28;20029;-70
2023/11/14 05:26:59;;;;;;;30.00;5.82;;;11.70;99.90;;;;;;5065952;28;20040;-70
2023/11/14 05:29:25;;;;;;;24.50;5.47;;;11.50;99.90;;;;;;5066799;28;20131;-70
2023/11/14 05:31:51;;;;;;;28.90;5.93;;;11.40;99.90;;;;;;5069813;28;20101;-70
2023/11/14 05:34:17;;;;;;;25.55;6.45;;;11.50;99.90;;;;;;5063630;28;20487;-70
2023/11/14 05:36:42;;;;;;;30.73;5.70;;;11.50;99.90;;;;;;5065281;28;21062;-70
2023/11/14 05:39:10;;;;;;;29.83;6.38;;;11.50;99.90;;;;;;5062154;28;20531;-70
2023/11/14 05:41:36;;;;;;;29.25;5.80;;;11.50;99.90;;;;;;5064700;28;20175;-70
2023/11/14 05:44:02;;;;;;;23.42;4.78;;;11.50;99.90;;;;;;5067790;28;20082;-70
2023/11/14 05:46:28;;;;;;;32.50;7.88;;;11.50;99.90;;;;;;5069571;28;20655;-70
2023/11/14 05:48:54;;;;;;;27.20;5.60;;;11.50;99.90;;;;;;5089702;27;20056;-71
2023/11/14 05:51:20;;;;;;;19.80;5.60;;;11.50;99.90;;;;;;5063824;28;20080;-71
2023/11/14 05:53:46;;;;;;;30.08;5.63;;;11.50;99.90;;;;;;5064655;28;20055;-70
2023/11/14 05:56:12;;;;;;;25.95;5.45;;;11.50;99.90;;;;;;5064977;28;20041;-70
2023/11/14 05:58:38;;;;;;;27.48;5.80;;;11.50;99.90;;;;;;5062576;28;20159;-70
2023/11/14 06:01:03;;;;;;;26.70;4.97;;;11.60;99.90;;;;;;5067778;28;20037;-70
2023/11/14 06:03:29;;;;;;;24.30;4.88;;;11.50;99.90;;;;;;5061638;28;20246;-70
2023/11/14 06:05:54;;;;;;;26.33;5.03;;;11.50;99.90;;;;;;5095067;27;20075;-70
2023/11/14 06:08:20;;;;;;;30.63;5.60;;;11.50;99.90;;;;;;5064975;28;20155;-70
2023/11/14 06:10:46;;;;;;;23.88;5.38;;;11.50;99.90;;;;;;5066649;28;20032;-70
2023/11/14 06:13:11;;;;;;;20.10;5.18;;;11.50;99.90;;;;;;5063593;28;20086;-70
2023/11/14 06:15:38;;;;;;;26.65;5.65;;;11.50;99.90;;;;;;5064854;28;20490;-70
2023/11/14 06:18:04;;;;;;;23.60;5.35;;;11.50;99.90;;;;;;5063723;28;20054;-70
2023/11/14 06:20:29;;;;;;;32.78;6.88;;;11.50;99.90;;;;;;5063042;28;20048;-70
2023/11/14 06:22:55;;;;;;;30.70;5.40;;;11.60;99.90;;;;;;5067403;28;20080;-70
2023/11/14 06:25:21;;;;;;;30.35;5.32;;;11.50;99.90;;;;;;5068062;28;20029;-70
2023/11/14 06:27:47;;;;;;;31.38;6.78;;;11.70;99.90;;;;;;5068662;28;20100;-70
2023/11/14 06:30:13;;;;;;;28.02;6.70;;;11.50;99.90;;;;;;5066859;28;20071;-70
2023/11/14 06:32:39;;;;;;;28.27;6.18;;;11.50;99.90;;;;;;5063754;28;20042;-71
2023/11/14 06:35:05;;;;;;;29.55;7.40;;;11.60;99.90;;;;;;5063981;28;20440;-70
2023/11/14 06:37:31;;;;;;;34.85;7.80;;;11.50;99.90;;;;;;5063473;28;20128;-70
2023/11/14 06:39:57;;;;;;;35.15;6.07;;;11.60;99.90;;;;;;5054517;28;20040;-71
2023/11/14 06:42:23;;;;;;;32.17;6.28;;;11.60;99.90;;;;;;5063660;28;20055;-70
2023/11/14 06:44:50;;;;;;;28.23;4.90;;;11.60;99.90;;;;;;5062053;28;20040;-71
2023/11/14 06:47:16;;;;;;;32.45;7.43;;;11.50;99.90;;;;;;5053654;28;20090;-70
2023/11/14 06:49:43;;;;;;;29.27;6.47;;;11.60;99.90;;;;;;5060318;28;20050;-70
2023/11/14 06:52:10;;;;;;;31.63;5.40;;;11.60;99.90;;;;;;5059418;28;20548;-70
2023/11/14 06:54:39;;;;;;;31.48;6.40;;;11.60;99.90;;;;;;5062416;28;20395;-70
2023/11/14 06:57:07;;;;;;;29.27;5.55;;;11.60;99.90;;;;;;5063318;28;20570;-70
2023/11/14 06:59:33;;;;;;;28.83;5.78;;;11.60;99.90;;;;;;5060174;28;20275;-70
2023/11/14 07:02:01;;;;;;;22.73;5.28;;;11.60;99.90;;;;;;5059089;28;20047;-70
2023/11/14 07:04:27;;;;;;;28.77;7.07;;;11.60;99.90;;;;;;5063043;28;20063;-70
2023/11/14 07:06:53;;;;;;;27.23;5.32;;;11.60;99.90;;;;;;5070250;28;20051;-70
2023/11/14 07:09:21;;;;;;;32.80;5.45;;;11.60;99.90;;;;;;5054016;28;21263;-71
2023/11/14 07:11:48;;;;;;;33.28;8.05;;;11.60;99.90;;;;;;5053430;28;20125;-70
2023/11/14 07:14:18;;;;;;;33.65;6.75;;;11.60;99.90;;;;;;5051184;28;20037;-71
2023/11/14 07:16:45;;;;;;;24.70;4.80;;;11.60;99.90;;;;;;5053528;28;20040;-70
2023/11/14 07:19:11;;;;;;;29.27;4.82;;;11.60;99.90;;;;;;5078990;27;20052;-71
2023/11/14 07:21:37;;;;;;;21.50;5.80;;;11.60;99.90;;;;;;5049056;28;20440;-70
2023/11/14 07:24:03;;;;;;;32.42;5.55;;;11.60;99.90;;;;;;5050078;28;20099;-71
2023/11/14 07:26:29;;;;;;;31.42;5.75;;;11.60;99.90;;;;;;5051921;28;20067;-70
2023/11/14 07:28:55;;;;;;;25.83;5.38;;;11.70;99.90;;;;;;5052278;28;20423;-70
2023/11/14 07:31:21;;;;;;;26.83;5.68;;;11.70;99.90;;;;;;5051311;28;20167;-70
2023/11/14 07:33:46;;;;;;;23.60;4.75;;;11.70;99.90;;;;;;5075707;28;20040;-71
2023/11/14 07:36:12;;;;;;;28.42;4.88;;;11.60;99.90;;;;;;5051441;28;20308;-71
2023/11/14 07:38:38;;;;;;;24.80;5.05;;;11.60;99.90;;;;;;5049455;28;20080;-71
2023/11/14 07:41:07;;;;;;;29.02;5.50;;;11.90;99.90;;;;;;5052352;28;20179;-71
2023/11/14 07:43:33;;;;;;;29.45;6.88;;;11.70;99.90;;;;;;5050872;28;20032;-71
2023/11/14 07:45:58;;;;;;;26.58;4.70;;;11.70;99.90;;;;;;5054046;28;20113;-70
2023/11/14 07:48:24;;;;;;;28.70;6.38;;;11.70;99.90;;;;;;5049058;28;20113;-71
2023/11/14 07:50:50;;;;;;;26.23;6.00;;;11.70;99.90;;;;;;5048126;28;20109;-70
2023/11/14 07:53:16;;;;;;;31.00;6.93;;;11.80;99.90;;;;;;5048291;28;21863;-70
2023/11/14 07:55:42;;;;;;;27.67;4.93;;;11.80;99.90;;;;;;5047090;28;20079;-71
2023/11/14 07:58:08;;;;;;;25.92;5.63;;;11.80;99.90;;;;;;5050655;28;20666;-71
2023/11/14 08:00:34;;;;;;;28.90;5.43;;;11.90;99.90;;;;;;5049609;28;20048;-71
2023/11/14 08:03:02;;;;;;;28.35;4.70;;;11.70;99.90;;;;;;5048919;28;20050;-71
2023/11/14 08:05:31;;;;;;;33.13;8.43;;;11.70;99.90;;;;;;5052256;28;20916;-71
2023/11/14 08:07:58;;;;;;;27.55;5.63;;;11.70;99.90;;;;;;5049224;28;20121;-71
2023/11/14 08:10:23;;;;;;;24.70;5.15;;;11.70;99.90;;;;;;5050166;28;20071;-70
2023/11/14 08:12:49;;;;;;;30.95;5.22;;;11.70;99.90;;;;;;5049212;28;20135;-71
2023/11/14 08:15:15;;;;;;;27.05;5.07;;;11.80;99.90;;;;;;5050766;28;20124;-70
2023/11/14 08:17:40;;;;;;;24.73;5.90;;;11.70;99.90;;;;;;5050472;28;20078;-70
2023/11/14 08:20:06;;;;;;;27.85;5.70;;;11.80;99.90;;;;;;5048467;28;20042;-71
2023/11/14 08:22:32;;;;;;;24.45;5.18;;;11.80;99.90;;;;;;5050264;28;20135;-71
2023/11/14 08:24:58;;;;;;;33.97;7.47;;;11.80;99.90;;;;;;5052562;28;20043;-70
2023/11/14 08:27:24;;;;;;;24.27;5.57;;;11.90;99.90;;;;;;5067757;28;20162;-70
2023/11/14 08:29:49;;;;;;;33.78;7.68;;;11.90;99.90;;;;;;5035374;28;20631;-70
2023/11/14 08:32:16;;;;;;;31.38;6.50;;;12.30;99.90;;;;;;5049697;28;20040;-71
2023/11/14 08:34:42;;;;;;;21.80;4.60;;;12.00;99.90;;;;;;5047585;28;20047;-70
2023/11/14 08:37:08;;;;;;;29.00;5.88;;;12.00;99.90;;;;;;5045113;28;20412;-71
2023/11/14 08:39:34;;;;;;;23.80;6.53;;;12.00;99.90;;;;;;5044736;28;20044;-70
2023/11/14 08:41:59;;;;;;;33.15;6.55;;;11.90;99.90;;;;;;5045869;28;20407;-70
2023/11/14 08:44:25;;;;;;;30.48;5.97;;;11.80;99.90;;;;;;5044649;28;20375;-70
2023/11/14 08:46:51;;;;;;;29.60;4.93;;;12.20;99.90;;;;;;5048614;28;20099;-71
2023/11/14 08:49:17;;;;;;;32.65;6.47;;;11.80;99.90;;;;;;5072813;28;20490;-70
2023/11/14 08:51:43;;;;;;;32.58;6.28;;;11.80;99.90;;;;;;5044134;28;20553;-70
2023/11/14 08:54:08;;;;;;;28.13;6.45;;;11.80;99.90;;;;;;5044621;28;20051;-70
2023/11/14 08:56:34;;;;;;;27.33;6.00;;;11.80;99.90;;;;;;5051007;28;20048;-70
2023/11/14 08:59:00;;;;;;;31.02;5.95;;;12.10;99.90;;;;;;5062858;28;20455;-70
2023/11/14 09:01:26;;;;;;;26.48;5.85;;;11.90;99.90;;;;;;5060913;28;20040;-70
2023/11/14 09:03:52;;;;;;;31.05;6.00;;;11.90;99.90;;;;;;5049217;28;20048;-70
2023/11/14 09:06:18;;;;;;;30.77;6.32;;;12.00;99.90;;;;;;5079310;28;20128;-70
2023/11/14 09:08:45;;;;;;;32.72;6.13;;;12.00;99.90;;;;;;5050625;28;20052;-71
2023/11/14 09:11:11;;;;;;;25.73;6.10;;;12.10;99.90;;;;;;5079968;28;20520;-70
2023/11/14 09:13:36;;;;;;;30.42;6.50;;;12.40;99.90;;;;;;5078783;28;20634;-71
2023/11/14 09:16:02;;;;;;;28.77;5.70;;;12.20;99.90;;;;;;5053399;28;20040;-71
2023/11/14 09:18:28;;;;;;;31.88;5.60;;;12.10;99.90;;;;;;5052694;28;20056;-71
2023/11/14 09:20:55;;;;;;;30.55;5.80;;;12.10;99.90;;;;;;5049326;28;20093;-70
2023/11/14 09:23:21;;;;;;;34.80;5.93;;;12.10;99.90;;;;;;5052660;28;20080;-71
2023/11/14 09:25:47;;;;;;;24.02;5.72;;;12.10;99.90;;;;;;5051965;28;20062;-71
2023/11/14 09:28:14;;;;;;;28.52;5.72;;;12.30;99.90;;;;;;5052822;28;20566;-71
2023/11/14 09:30:39;;;;;;;29.85;6.03;;;12.30;99.90;;;;;;5051261;28;20607;-71
2023/11/14 09:33:05;;;;;;;25.70;5.22;;;12.40;99.90;;;;;;5047209;28;20044;-71
2023/11/14 09:35:31;;;;;;;25.65;5.30;;;12.50;99.90;;;;;;5051926;28;20036;-71
2023/11/14 09:37:57;;;;;;;27.63;6.25;;;12.60;99.90;;;;;;5052410;28;20068;-71
2023/11/14 09:40:24;;;;;;;30.80;5.22;;;12.60;99.90;;;;;;5069136;28;20040;-71
2023/11/14 09:42:51;;;;;;;33.58;7.35;;;12.60;99.90;;;;;;5048793;28;20467;-71
2023/11/14 09:45:20;;;;;;;28.30;5.75;;;12.70;99.90;;;;;;5052002;28;20083;-71
2023/11/14 09:47:46;;;;;;;34.70;5.38;;;12.60;99.90;;;;;;5056362;28;20029;-70
2023/11/14 09:50:12;;;;;;;31.45;6.00;;;12.60;99.90;;;;;;5056483;28;20603;-71
2023/11/14 09:52:38;;;;;;;31.67;7.78;;;12.50;99.90;;;;;;5050170;28;20055;-70
2023/11/14 09:55:05;;;;;;;34.35;7.00;;;12.60;99.90;;;;;;5060222;28;20048;-70
2023/11/14 09:57:34;;;;;;;29.88;6.40;;;12.60;99.90;;;;;;5049074;28;21327;-70
2023/11/14 10:00:01;;;;;;;30.88;5.68;;;12.70;99.90;;;;;;5048760;28;20700;-71
2023/11/14 10:02:27;;;;;;;23.88;5.28;;;12.70;99.90;;;;;;5050730;28;20080;-71
2023/11/14 10:04:52;;;;;;;26.30;6.47;;;12.60;99.90;;;;;;5049163;28;20586;-70
2023/11/14 10:07:20;;;;;;;25.65;5.88;;;12.50;99.90;;;;;;5046387;28;20036;-70
2023/11/14 10:09:47;;;;;;;26.67;5.10;;;12.50;99.90;;;;;;5054266;28;20059;-70
2023/11/14 10:12:31;;;;;;;23.98;4.82;;;12.50;99.90;;;;;;5049706;28;20077;-70
2023/11/14 10:14:57;;;;;;;26.73;6.72;;;12.50;99.90;;;;;;5050504;28;20040;-70
2023/11/14 10:17:26;;;;;;;24.08;5.75;;;12.60;99.90;;;;;;5052896;28;20043;-71
2023/11/14 10:20:00;;;;;;;20.42;4.82;;;12.60;99.90;;;;;;5056781;28;20059;-71
2023/11/14 10:22:27;;;;;;;22.15;4.88;;;12.70;99.90;;;;;;5056911;28;20045;-71
2023/11/14 10:24:52;;;;;;;23.75;4.72;;;12.70;99.90;;;;;;5037611;28;20040;-71
2023/11/14 10:27:28;;;;;;;29.02;5.32;;;12.70;99.90;;;;;;5054964;28;20389;-71
2023/11/14 10:29:55;;;;;;;21.75;4.47;;;12.90;99.90;;;;;;5053076;28;20473;-70
2023/11/14 10:32:24;;;;;;;25.90;5.88;;;12.90;99.90;;;;;;5057899;28;20044;-70
2023/11/14 10:34:53;;;;;;;32.55;6.55;;;12.90;99.90;;;;;;5054200;28;20041;-70
2023/11/14 10:37:35;;;;;;;24.73;4.30;;;12.90;99.90;;;;;;5052840;28;20048;-70
2023/11/14 10:40:06;;;;;;;22.73;5.47;;;12.90;99.90;;;;;;5080746;28;20140;-71
2023/11/14 10:42:33;;;;;;;23.95;5.97;;;12.80;99.90;;;;;;5054726;28;20036;-70
2023/11/14 10:45:08;;;;;;;22.05;4.90;;;12.70;99.90;;;;;;5056377;28;20060;-71
2023/11/14 10:47:38;;;;;;;24.15;5.13;;;12.60;99.90;;;;;;5056415;28;20169;-70
2023/11/14 10:50:05;;;;;;;28.17;4.22;;;12.50;99.90;;;;;;5054133;28;20947;-71
2023/11/14 10:52:34;;;;;;;27.88;4.65;;;12.40;99.90;;;;;;5054806;28;21886;-70
2023/11/14 10:55:01;;;;;;;25.88;4.30;;;12.40;99.90;;;;;;5072274;28;20080;-70
2023/11/14 10:57:27;;;;;;;24.70;5.43;;;12.40;99.90;;;;;;5053174;28;20089;-70
2023/11/14 10:59:55;;;;;;;25.67;5.32;;;12.60;99.90;;;;;;5050588;28;20103;-70
2023/11/14 11:02:22;;;;;;;28.08;5.80;;;12.60;99.90;;;;;;5054897;28;20040;-70
2023/11/14 11:04:48;;;;;;;21.75;4.93;;;12.60;99.90;;;;;;5054370;28;20040;-71
2023/11/14 11:07:14;;;;;;;25.45;5.68;;;12.60;99.90;;;;;;5062806;28;20123;-71
2023/11/14 11:09:40;;;;;;;21.98;5.45;;;12.50;99.90;;;;;;5085870;28;20101;-71
2023/11/14 11:12:07;;;;;;;22.02;5.07;;;12.50;99.90;;;;;;5069681;28;21543;-70
2023/11/14 11:14:34;;;;;;;24.80;5.25;;;12.60;99.90;;;;;;5067679;28;20475;-70
2023/11/14 11:17:00;;;;;;;22.15;5.40;;;12.50;99.90;;;;;;5064246;28;20101;-70
2023/11/14 11:19:28;;;;;;;28.17;5.97;;;12.50;99.90;;;;;;5065429;28;20041;-70
2023/11/14 11:22:10;;;;;;;23.58;6.38;;;12.50;99.90;;;;;;5057403;28;20048;-70
2023/11/14 11:24:36;;;;;;;28.80;6.07;;;12.40;99.90;;;;;;5056449;28;20044;-71
2023/11/14 11:27:21;;;;;;;25.63;5.72;;;12.40;99.90;;;;;;5052786;28;20042;-70
2023/11/14 11:29:58;;;;;;;32.42;7.32;;;12.40;99.90;;;;;;5055482;28;21568;-70
2023/11/14 11:32:39;;;;;;;28.77;5.97;;;12.40;99.90;;;;;;5054542;28;20052;-70
2023/11/14 11:35:19;;;;;;;26.20;6.03;;;12.50;99.90;;;;;;5059831;28;20048;-70
2023/11/14 11:38:04;;;;;;;25.98;4.95;;;12.70;99.90;;;;;;5054403;28;20051;-70
2023/11/14 11:40:31;;;;;;;27.67;4.75;;;12.50;99.90;;;;;;5055710;28;20075;-70
2023/11/14 11:43:15;;;;;;;27.30;5.28;;;12.50;99.90;;;;;;5056025;28;20122;-70
2023/11/14 11:45:49;;;;;;;26.17;5.25;;;12.50;99.90;;;;;;5054210;28;21916;-70
2023/11/14 11:48:35;;;;;;;21.15;5.15;;;12.60;99.90;;;;;;5054312;28;20372;-70
2023/11/14 11:51:21;;;;;;;32.83;6.22;;;12.80;99.90;;;;;;5055024;28;20048;-71
2023/11/14 11:53:49;;;;;;;27.65;6.10;;;12.70;99.90;;;;;;5055858;28;20040;-71
2023/11/14 11:56:34;;;;;;;27.70;4.50;;;12.80;99.90;;;;;;5058155;28;20563;-71
2023/11/14 11:58:59;;;;;;;28.73;5.75;;;12.70;99.90;;;;;;5074361;28;21107;-71
2023/11/14 12:01:25;;;;;;;30.27;5.28;;;12.60;99.90;;;;;;5051609;28;20075;-71
2023/11/14 12:03:51;;;;;;;28.52;5.78;;;13.00;99.90;;;;;;5050969;28;20459;-71
2023/11/14 12:06:17;;;;;;;28.85;6.50;;;12.90;99.90;;;;;;5060400;28;20044;-71
2023/11/14 12:08:43;;;;;;;24.75;5.10;;;13.20;99.90;;;;;;5065075;28;20446;-71
2023/11/14 12:11:14;;;;;;;22.55;4.20;;;13.50;99.90;;;;;;5067285;28;20119;-71
2023/11/14 12:13:42;;;;;;;24.20;4.07;;;13.40;99.90;;;;;;5068561;28;20433;-71
2023/11/14 12:16:08;;;;;;;24.33;5.35;;;13.40;99.90;;;;;;5069760;28;20509;-71
2023/11/14 12:18:33;;;;;;;21.70;4.60;;;13.50;99.90;;;;;;5094848;28;20048;-71
2023/11/14 12:20:59;;;;;;;26.52;5.60;;;13.50;99.90;;;;;;5068191;28;20033;-71
2023/11/14 12:23:25;;;;;;;27.02;5.22;;;13.70;99.90;;;;;;5064306;28;20638;-71
2023/11/14 12:25:51;;;;;;;28.17;6.38;;;13.70;99.90;;;;;;5063580;28;20123;-71
2023/11/14 12:28:16;;;;;;;23.02;4.35;;;13.90;99.90;;;;;;5073958;28;20040;-70
2023/11/14 12:30:59;;;;;;;23.88;5.55;;;13.50;99.90;;;;;;5067892;28;20060;-70
2023/11/14 12:33:25;;;;;;;23.60;5.95;;;13.50;99.90;;;;;;5067105;28;20044;-70
2023/11/14 12:35:58;;;;;;;29.45;5.82;;;13.30;99.90;;;;;;5067593;28;20367;-70